»·PEaware :: WAT169 KLAS-KSNA

WAT169 :: KLAS-KSNA

FLIGHT INFORMATION

Flight Status: Arrived
Operator:
Walker Air Transport
More flights by this operator :: More flights under this callsign
Pilot: Marty P. (27464)
Aircraft: BOEING 737-800
(B738)
More flights by this aircraft type
Origin: KLAS McCarran Intl
United States
Destination: KSNA John Wayne-Orange Co
United States
More flights between these airports :: More routes between these airports
Route: BOACH8 WHIGG FEYLA DSNEE4
File this flight plan on PilotEdge
Remarks:
Altitude:
(Current/Filed)
28,000ft
Speed:
(Current/Filed)
480kts
Departed: 11-Oct-20 06:56 PM
Arrived: 11-Oct-20 07:35 PM
Distance/Time
Traveled:
197nm/0:38
Distance/Time
To Go:
Arrived

Flight Plot

Page will automatically refresh every two minutes.

Flight plan parsing failed; only flown route is shown


Map Options




Map Legend


Flown Route
Filed Route
Departure Airport
Arrival Airport
Navaid (VOR, NDB)
Fix

Horizontal Profiles

Position Reports

Time Latitude Longitude Heading Altitude Ground
Speed
11-Oct-20 18:42 36.081005 -115.147687 66 2099ft 0kts
11-Oct-20 18:44 36.081005 -115.147687 66 2099ft 0kts
11-Oct-20 18:45 36.081005 -115.147687 66 2099ft 0kts
11-Oct-20 18:46 36.081005 -115.147687 66 2099ft 0kts
11-Oct-20 18:47 36.081005 -115.147688 66 2099ft 0kts
11-Oct-20 18:48 36.080956 -115.148146 103 2101ft 2kts
11-Oct-20 18:49 36.081270 -115.148631 156 2103ft 1kts
11-Oct-20 18:50 36.081309 -115.148651 156 2103ft 0kts
11-Oct-20 18:51 36.079706 -115.147739 155 2102ft 10kts
11-Oct-20 18:52 36.078270 -115.143378 91 2091ft 25kts
11-Oct-20 18:53 36.078268 -115.133726 90 2062ft 25kts
11-Oct-20 18:54 36.078277 -115.124814 90 2042ft 24kts
11-Oct-20 18:55 36.077440 -115.121476 141 2039ft 0kts
11-Oct-20 18:56 36.076418 -115.127166 270 2049ft 91kts
11-Oct-20 18:57 36.076972 -115.184352 269 3229ft 197kts
11-Oct-20 18:57 36.066483 -115.246678 231 5194ft 247kts
11-Oct-20 18:59 35.991561 -115.288748 202 7002ft 267kts
11-Oct-20 18:59 35.928826 -115.304846 185 9752ft 289kts
11-Oct-20 19:01 35.819940 -115.310553 176 11551ft 396kts
11-Oct-20 19:01 35.725531 -115.302979 188 13999ft 416kts
11-Oct-20 19:02 35.626324 -115.368142 229 16888ft 414kts
11-Oct-20 19:03 35.547879 -115.470460 233 19723ft 419kts
11-Oct-20 19:04 35.467900 -115.577854 233 21979ft 433kts
11-Oct-20 19:05 35.386960 -115.686777 233 24708ft 427kts
11-Oct-20 19:06 35.308865 -115.791672 234 27813ft 403kts
11-Oct-20 19:07 35.229528 -115.898468 233 28066ft 453kts
11-Oct-20 19:08 35.137049 -116.015630 231 28064ft 501kts
11-Oct-20 19:09 35.036552 -116.141750 230 28063ft 534kts
11-Oct-20 19:10 34.931579 -116.273324 230 28051ft 537kts
11-Oct-20 19:11 34.834458 -116.395468 231 27620ft 491kts
11-Oct-20 19:12 34.744648 -116.509564 231 25820ft 449kts
11-Oct-20 19:13 34.656936 -116.609324 224 24828ft 430kts
11-Oct-20 19:14 34.562667 -116.702401 222 21841ft 438kts
11-Oct-20 19:15 34.472043 -116.797108 226 18812ft 412kts
11-Oct-20 19:16 34.393184 -116.888520 226 15828ft 379kts
11-Oct-20 19:17 34.318178 -116.975352 225 14701ft 376kts
11-Oct-20 19:18 34.239464 -117.053507 212 13990ft 367kts
11-Oct-20 19:19 34.150435 -117.113985 204 12097ft 354kts
11-Oct-20 19:20 34.059916 -117.162288 204 11980ft 356kts
11-Oct-20 19:21 33.976977 -117.225228 227 11321ft 356kts
11-Oct-20 19:22 33.915111 -117.310302 229 9315ft 319kts
11-Oct-20 19:23 33.861243 -117.386567 228 7991ft 261kts
11-Oct-20 19:24 33.818009 -117.451153 241 7797ft 251kts
11-Oct-20 19:25 33.796278 -117.521513 266 7553ft 200kts
11-Oct-20 19:26 33.815794 -117.582368 311 6510ft 208kts
11-Oct-20 19:27 33.849552 -117.630854 311 6048ft 188kts
11-Oct-20 19:28 33.883054 -117.678598 308 5001ft 176kts
11-Oct-20 19:29 33.864377 -117.729098 222 3395ft 196kts
11-Oct-20 19:30 33.824229 -117.771656 218 2974ft 191kts
11-Oct-20 19:31 33.778073 -117.803864 208 2226ft 188kts
11-Oct-20 19:32 33.732937 -117.832524 207 1230ft 165kts
11-Oct-20 19:33 33.695761 -117.856108 207 410ft 149kts
11-Oct-20 19:34 33.669966 -117.872155 170 66ft 20kts
11-Oct-20 19:35 33.669215 -117.870866 48 66ft 11kts
11-Oct-20 19:36 33.673245 -117.867094 39 66ft 18kts
11-Oct-20 19:37 33.675981 -117.865224 87 66ft 1kts
11-Oct-20 19:38 33.675724 -117.864649 118 66ft 0kts

Navigation Log

Ident Type
Flight plan parsing failed, navigation log unavailable